Terminal Aerodrome Forecast
Issued by NWS

Home | Current Version | Previous Version | Text Only | Print | Product List | Glossary On
Versions: 1 2 3 4 5 6 7 8 9 10 11 12 13 14 15 16 17
898
FTUS44 KLIX 261730
TAFMSY
TAF
KMSY 261730Z 2618/2718 04006KT P6SM FEW030 BKN180 BKN250
      TEMPO 2620/2622 5SM -TSRA SCT030CB
     FM262300 12006KT P6SM BKN200
     FM270400 00000KT P6SM SCT200
     FM271400 04006KT P6SM BKN200=

USA.gov is the U.S. government's official web portal to all federal, state and local government web resources and services.